sensor_id;sensor_type;location;lat;lon;timestamp;temperature;humidity
2931;DHT22;1475;51.454;7.150;2022-07-17T00:00:17;14.30;99.90
2931;DHT22;1475;51.454;7.150;2022-07-17T00:02:43;14.20;99.90
2931;DHT22;1475;51.454;7.150;2022-07-17T00:05:12;14.20;99.90
2931;DHT22;1475;51.454;7.150;2022-07-17T00:07:38;14.10;99.90
2931;DHT22;1475;51.454;7.150;2022-07-17T00:10:06;14.10;99.90
2931;DHT22;1475;51.454;7.150;2022-07-17T00:12:33;14.00;99.90
2931;DHT22;1475;51.454;7.150;2022-07-17T00:15:00;14.00;99.90
2931;DHT22;1475;51.454;7.150;2022-07-17T00:17:27;13.90;99.90
2931;DHT22;1475;51.454;7.150;2022-07-17T00:19:54;13.90;99.90
2931;DHT22;1475;51.454;7.150;2022-07-17T00:22:22;13.90;99.90
2931;DHT22;1475;51.454;7.150;2022-07-17T00:24:49;13.80;99.90
2931;DHT22;1475;51.454;7.150;2022-07-17T00:27:16;13.80;99.90
2931;DHT22;1475;51.454;7.150;2022-07-17T00:29:42;13.80;99.90
2931;DHT22;1475;51.454;7.150;2022-07-17T00:32:09;13.70;99.90
2931;DHT22;1475;51.454;7.150;2022-07-17T00:34:36;13.70;99.90
2931;DHT22;1475;51.454;7.150;2022-07-17T00:37:02;13.70;99.90
2931;DHT22;1475;51.454;7.150;2022-07-17T00:39:31;13.60;99.90
2931;DHT22;1475;51.454;7.150;2022-07-17T00:41:57;13.60;99.90
2931;DHT22;1475;51.454;7.150;2022-07-17T00:44:26;13.60;99.90
2931;DHT22;1475;51.454;7.150;2022-07-17T00:46:53;13.60;99.90
2931;DHT22;1475;51.454;7.150;2022-07-17T00:49:20;13.60;99.90
2931;DHT22;1475;51.454;7.150;2022-07-17T00:51:46;13.60;99.90
2931;DHT22;1475;51.454;7.150;2022-07-17T00:54:14;13.60;99.90
2931;DHT22;1475;51.454;7.150;2022-07-17T00:56:46;13.60;99.90
2931;DHT22;1475;51.454;7.150;2022-07-17T00:59:13;13.60;99.90
2931;DHT22;1475;51.454;7.150;2022-07-17T01:01:41;13.50;99.90
2931;DHT22;1475;51.454;7.150;2022-07-17T01:04:08;13.50;99.90
2931;DHT22;1475;51.454;7.150;2022-07-17T01:06:34;13.50;99.90
2931;DHT22;1475;51.454;7.150;2022-07-17T01:09:01;13.50;99.90
2931;DHT22;1475;51.454;7.150;2022-07-17T01:11:28;13.40;99.90
2931;DHT22;1475;51.454;7.150;2022-07-17T01:13:57;13.40;99.90
2931;DHT22;1475;51.454;7.150;2022-07-17T01:16:24;13.30;99.90
2931;DHT22;1475;51.454;7.150;2022-07-17T01:18:51;13.30;99.90
2931;DHT22;1475;51.454;7.150;2022-07-17T01:21:20;13.20;99.90
2931;DHT22;1475;51.454;7.150;2022-07-17T01:23:47;13.20;99.90
2931;DHT22;1475;51.454;7.150;2022-07-17T01:26:14;13.10;99.90
2931;DHT22;1475;51.454;7.150;2022-07-17T01:28:40;13.10;99.90
2931;DHT22;1475;51.454;7.150;2022-07-17T01:31:07;13.00;99.90
2931;DHT22;1475;51.454;7.150;2022-07-17T01:33:34;13.00;99.90
2931;DHT22;1475;51.454;7.150;2022-07-17T01:36:01;13.00;99.90
2931;DHT22;1475;51.454;7.150;2022-07-17T01:38:29;12.90;99.90
2931;DHT22;1475;51.454;7.150;2022-07-17T01:40:56;12.90;99.90
2931;DHT22;1475;51.454;7.150;2022-07-17T01:43:23;12.90;99.90
2931;DHT22;1475;51.454;7.150;2022-07-17T01:45:50;12.90;99.90
2931;DHT22;1475;51.454;7.150;2022-07-17T01:48:24;12.80;99.90
2931;DHT22;1475;51.454;7.150;2022-07-17T01:50:51;12.80;99.90
2931;DHT22;1475;51.454;7.150;2022-07-17T01:53:18;12.80;99.90
2931;DHT22;1475;51.454;7.150;2022-07-17T01:55:46;12.70;99.90
2931;DHT22;1475;51.454;7.150;2022-07-17T01:58:13;12.70;99.90
2931;DHT22;1475;51.454;7.150;2022-07-17T02:00:40;12.70;99.90
2931;DHT22;1475;51.454;7.150;2022-07-17T02:03:07;12.70;99.90
2931;DHT22;1475;51.454;7.150;2022-07-17T02:05:34;12.70;99.90
2931;DHT22;1475;51.454;7.150;2022-07-17T02:08:00;12.70;99.90
2931;DHT22;1475;51.454;7.150;2022-07-17T02:10:28;12.70;99.90
2931;DHT22;1475;51.454;7.150;2022-07-17T02:12:56;12.60;99.90
2931;DHT22;1475;51.454;7.150;2022-07-17T02:15:23;12.60;99.90
2931;DHT22;1475;51.454;7.150;2022-07-17T02:17:50;12.60;99.90
2931;DHT22;1475;51.454;7.150;2022-07-17T02:20:17;12.60;99.90
2931;DHT22;1475;51.454;7.150;2022-07-17T02:22:44;12.60;99.90
2931;DHT22;1475;51.454;7.150;2022-07-17T02:25:11;12.60;99.90
2931;DHT22;1475;51.454;7.150;2022-07-17T02:27:39;12.60;99.90
2931;DHT22;1475;51.454;7.150;2022-07-17T02:30:09;12.60;99.90
2931;DHT22;1475;51.454;7.150;2022-07-17T02:32:37;12.50;99.90
2931;DHT22;1475;51.454;7.150;2022-07-17T02:35:05;12.40;99.90
2931;DHT22;1475;51.454;7.150;2022-07-17T02:37:31;12.40;99.90
2931;DHT22;1475;51.454;7.150;2022-07-17T02:39:58;12.30;99.90
2931;DHT22;1475;51.454;7.150;2022-07-17T02:42:27;12.30;99.90
2931;DHT22;1475;51.454;7.150;2022-07-17T02:44:54;12.30;99.90
2931;DHT22;1475;51.454;7.150;2022-07-17T02:47:24;12.20;99.90
2931;DHT22;1475;51.454;7.150;2022-07-17T02:49:52;12.20;99.90
2931;DHT22;1475;51.454;7.150;2022-07-17T02:52:19;12.10;99.90
2931;DHT22;1475;51.454;7.150;2022-07-17T02:54:46;12.10;99.90
2931;DHT22;1475;51.454;7.150;2022-07-17T02:57:13;12.10;99.90
2931;DHT22;1475;51.454;7.150;2022-07-17T02:59:40;12.00;99.90
2931;DHT22;1475;51.454;7.150;2022-07-17T03:02:07;12.00;99.90
2931;DHT22;1475;51.454;7.150;2022-07-17T03:04:36;12.00;99.90
2931;DHT22;1475;51.454;7.150;2022-07-17T03:07:02;11.90;99.90
2931;DHT22;1475;51.454;7.150;2022-07-17T03:09:29;11.90;99.90
2931;DHT22;1475;51.454;7.150;2022-07-17T03:11:56;11.90;99.90
2931;DHT22;1475;51.454;7.150;2022-07-17T03:14:23;11.90;99.90
2931;DHT22;1475;51.454;7.150;2022-07-17T03:16:50;11.90;99.90
2931;DHT22;1475;51.454;7.150;2022-07-17T03:19:16;11.80;99.90
2931;DHT22;1475;51.454;7.150;2022-07-17T03:21:45;11.80;99.90
2931;DHT22;1475;51.454;7.150;2022-07-17T03:24:12;11.80;99.90
2931;DHT22;1475;51.454;7.150;2022-07-17T03:26:39;11.80;99.90
2931;DHT22;1475;51.454;7.150;2022-07-17T03:29:05;11.80;99.90
2931;DHT22;1475;51.454;7.150;2022-07-17T03:31:32;11.70;99.90
2931;DHT22;1475;51.454;7.150;2022-07-17T03:33:59;11.80;99.90
2931;DHT22;1475;51.454;7.150;2022-07-17T03:36:25;11.70;99.90
2931;DHT22;1475;51.454;7.150;2022-07-17T03:38:54;11.70;99.90
2931;DHT22;1475;51.454;7.150;2022-07-17T03:41:20;11.70;99.90
2931;DHT22;1475;51.454;7.150;2022-07-17T03:43:47;11.60;99.90
2931;DHT22;1475;51.454;7.150;2022-07-17T03:46:14;11.60;99.90
2931;DHT22;1475;51.454;7.150;2022-07-17T03:48:40;11.60;99.90
2931;DHT22;1475;51.454;7.150;2022-07-17T03:51:07;11.60;99.90
2931;DHT22;1475;51.454;7.150;2022-07-17T03:53:34;11.60;99.90
2931;DHT22;1475;51.454;7.150;2022-07-17T03:56:03;11.50;99.90
2931;DHT22;1475;51.454;7.150;2022-07-17T03:58:30;11.50;99.90
2931;DHT22;1475;51.454;7.150;2022-07-17T04:00:57;11.50;99.90
2931;DHT22;1475;51.454;7.150;2022-07-17T04:03:24;11.50;99.90
2931;DHT22;1475;51.454;7.150;2022-07-17T04:05:51;11.50;99.90
2931;DHT22;1475;51.454;7.150;2022-07-17T04:08:18;11.50;99.90
2931;DHT22;1475;51.454;7.150;2022-07-17T04:10:45;11.50;99.90
2931;DHT22;1475;51.454;7.150;2022-07-17T04:13:13;11.50;99.90
2931;DHT22;1475;51.454;7.150;2022-07-17T04:15:40;11.50;99.90
2931;DHT22;1475;51.454;7.150;2022-07-17T04:18:18;11.50;99.90
2931;DHT22;1475;51.454;7.150;2022-07-17T04:20:45;11.60;99.90
2931;DHT22;1475;51.454;7.150;2022-07-17T04:23:12;11.60;99.90
2931;DHT22;1475;51.454;7.150;2022-07-17T04:25:39;11.60;99.90
2931;DHT22;1475;51.454;7.150;2022-07-17T04:28:06;11.70;99.90
2931;DHT22;1475;51.454;7.150;2022-07-17T04:30:34;11.70;99.90
2931;DHT22;1475;51.454;7.150;2022-07-17T04:33:01;11.80;99.90
2931;DHT22;1475;51.454;7.150;2022-07-17T04:35:28;11.90;99.90
2931;DHT22;1475;51.454;7.150;2022-07-17T04:37:55;11.90;99.90
2931;DHT22;1475;51.454;7.150;2022-07-17T04:40:22;12.00;99.90
2931;DHT22;1475;51.454;7.150;2022-07-17T04:42:49;12.10;99.90
2931;DHT22;1475;51.454;7.150;2022-07-17T04:45:16;12.10;99.90
2931;DHT22;1475;51.454;7.150;2022-07-17T04:47:44;12.10;99.90
2931;DHT22;1475;51.454;7.150;2022-07-17T04:50:11;12.20;99.90
2931;DHT22;1475;51.454;7.150;2022-07-17T04:52:37;12.30;99.90
2931;DHT22;1475;51.454;7.150;2022-07-17T04:55:05;12.40;99.90
2931;DHT22;1475;51.454;7.150;2022-07-17T04:57:31;12.50;99.90
2931;DHT22;1475;51.454;7.150;2022-07-17T04:59:58;12.50;99.90
2931;DHT22;1475;51.454;7.150;2022-07-17T05:02:25;12.60;99.90
2931;DHT22;1475;51.454;7.150;2022-07-17T05:04:53;12.70;99.90
2931;DHT22;1475;51.454;7.150;2022-07-17T05:07:20;12.80;99.90
2931;DHT22;1475;51.454;7.150;2022-07-17T05:09:46;12.80;99.90
2931;DHT22;1475;51.454;7.150;2022-07-17T05:12:13;12.90;99.90
2931;DHT22;1475;51.454;7.150;2022-07-17T05:14:40;13.00;99.90
2931;DHT22;1475;51.454;7.150;2022-07-17T05:17:07;13.10;99.90
2931;DHT22;1475;51.454;7.150;2022-07-17T05:19:34;13.20;99.90
2931;DHT22;1475;51.454;7.150;2022-07-17T05:22:02;13.30;99.90
2931;DHT22;1475;51.454;7.150;2022-07-17T05:24:30;13.40;99.90
2931;DHT22;1475;51.454;7.150;2022-07-17T05:26:59;13.50;99.90
2931;DHT22;1475;51.454;7.150;2022-07-17T05:29:26;13.50;99.90
2931;DHT22;1475;51.454;7.150;2022-07-17T05:31:53;13.70;99.90
2931;DHT22;1475;51.454;7.150;2022-07-17T05:34:20;13.80;99.90
2931;DHT22;1475;51.454;7.150;2022-07-17T05:36:47;13.90;99.90
2931;DHT22;1475;51.454;7.150;2022-07-17T05:39:16;14.00;99.90
2931;DHT22;1475;51.454;7.150;2022-07-17T05:41:42;14.20;99.90
2931;DHT22;1475;51.454;7.150;2022-07-17T05:44:09;14.40;99.90
2931;DHT22;1475;51.454;7.150;2022-07-17T05:46:36;14.50;99.90
2931;DHT22;1475;51.454;7.150;2022-07-17T05:49:03;14.70;99.90
2931;DHT22;1475;51.454;7.150;2022-07-17T05:51:30;14.80;99.90
2931;DHT22;1475;51.454;7.150;2022-07-17T05:53:57;14.90;99.90
2931;DHT22;1475;51.454;7.150;2022-07-17T05:56:25;15.00;99.90
2931;DHT22;1475;51.454;7.150;2022-07-17T05:58:51;15.10;99.90
2931;DHT22;1475;51.454;7.150;2022-07-17T06:01:18;15.20;99.90
2931;DHT22;1475;51.454;7.150;2022-07-17T06:03:45;15.20;99.90
2931;DHT22;1475;51.454;7.150;2022-07-17T06:06:12;15.30;99.90
2931;DHT22;1475;51.454;7.150;2022-07-17T06:08:39;15.40;99.90
2931;DHT22;1475;51.454;7.150;2022-07-17T06:11:06;15.50;99.90
2931;DHT22;1475;51.454;7.150;2022-07-17T06:13:35;15.60;99.90
2931;DHT22;1475;51.454;7.150;2022-07-17T06:16:02;15.70;99.90
2931;DHT22;1475;51.454;7.150;2022-07-17T06:18:28;15.80;99.90
2931;DHT22;1475;51.454;7.150;2022-07-17T06:20:55;15.80;99.90
2931;DHT22;1475;51.454;7.150;2022-07-17T06:23:22;15.90;99.90
2931;DHT22;1475;51.454;7.150;2022-07-17T06:25:49;16.00;99.90
2931;DHT22;1475;51.454;7.150;2022-07-17T06:28:16;16.10;99.90
2931;DHT22;1475;51.454;7.150;2022-07-17T06:30:44;16.20;99.90
2931;DHT22;1475;51.454;7.150;2022-07-17T06:33:11;16.30;99.90
2931;DHT22;1475;51.454;7.150;2022-07-17T06:35:37;16.40;99.90
2931;DHT22;1475;51.454;7.150;2022-07-17T06:38:04;16.50;99.90
2931;DHT22;1475;51.454;7.150;2022-07-17T06:40:31;16.60;99.90
2931;DHT22;1475;51.454;7.150;2022-07-17T06:42:57;16.70;99.90
2931;DHT22;1475;51.454;7.150;2022-07-17T06:45:24;16.80;99.90
2931;DHT22;1475;51.454;7.150;2022-07-17T06:47:52;16.90;99.90
2931;DHT22;1475;51.454;7.150;2022-07-17T06:50:19;17.00;99.90
2931;DHT22;1475;51.454;7.150;2022-07-17T06:52:46;17.10;99.90
2931;DHT22;1475;51.454;7.150;2022-07-17T06:55:13;17.10;99.90
2931;DHT22;1475;51.454;7.150;2022-07-17T06:57:40;17.20;99.90
2931;DHT22;1475;51.454;7.150;2022-07-17T07:00:07;17.30;99.90
2931;DHT22;1475;51.454;7.150;2022-07-17T07:02:35;17.40;99.90
2931;DHT22;1475;51.454;7.150;2022-07-17T07:05:04;17.40;99.90
2931;DHT22;1475;51.454;7.150;2022-07-17T07:07:31;17.50;99.90
2931;DHT22;1475;51.454;7.150;2022-07-17T07:09:58;17.60;99.90
2931;DHT22;1475;51.454;7.150;2022-07-17T07:12:24;17.60;99.90
2931;DHT22;1475;51.454;7.150;2022-07-17T07:14:51;17.60;99.90
2931;DHT22;1475;51.454;7.150;2022-07-17T07:17:18;17.70;99.90
2931;DHT22;1475;51.454;7.150;2022-07-17T07:19:45;17.80;99.90
2931;DHT22;1475;51.454;7.150;2022-07-17T07:22:14;17.90;99.90
2931;DHT22;1475;51.454;7.150;2022-07-17T07:24:40;18.00;99.90
2931;DHT22;1475;51.454;7.150;2022-07-17T07:27:07;18.20;99.90
2931;DHT22;1475;51.454;7.150;2022-07-17T07:29:34;18.20;99.90
2931;DHT22;1475;51.454;7.150;2022-07-17T07:32:01;18.30;99.90
2931;DHT22;1475;51.454;7.150;2022-07-17T07:34:28;18.40;99.90
2931;DHT22;1475;51.454;7.150;2022-07-17T07:36:55;18.50;99.90
2931;DHT22;1475;51.454;7.150;2022-07-17T07:39:23;18.60;99.90
2931;DHT22;1475;51.454;7.150;2022-07-17T07:41:50;18.70;99.90
2931;DHT22;1475;51.454;7.150;2022-07-17T07:44:17;18.80;99.90
2931;DHT22;1475;51.454;7.150;2022-07-17T07:46:44;18.90;99.90
2931;DHT22;1475;51.454;7.150;2022-07-17T07:49:11;19.00;99.90
2931;DHT22;1475;51.454;7.150;2022-07-17T07:51:38;19.10;99.90
2931;DHT22;1475;51.454;7.150;2022-07-17T07:54:04;19.20;99.90
2931;DHT22;1475;51.454;7.150;2022-07-17T07:56:33;19.30;99.90
2931;DHT22;1475;51.454;7.150;2022-07-17T07:59:00;19.30;99.90
2931;DHT22;1475;51.454;7.150;2022-07-17T08:01:27;19.40;99.90
2931;DHT22;1475;51.454;7.150;2022-07-17T08:03:54;19.50;99.90
2931;DHT22;1475;51.454;7.150;2022-07-17T08:06:21;19.60;99.90
2931;DHT22;1475;51.454;7.150;2022-07-17T08:08:48;19.60;99.90
2931;DHT22;1475;51.454;7.150;2022-07-17T08:11:15;19.70;99.90
2931;DHT22;1475;51.454;7.150;2022-07-17T08:13:43;19.80;99.90
2931;DHT22;1475;51.454;7.150;2022-07-17T08:16:09;19.90;99.90
2931;DHT22;1475;51.454;7.150;2022-07-17T08:18:36;20.00;99.90
2931;DHT22;1475;51.454;7.150;2022-07-17T08:21:03;20.00;99.90
2931;DHT22;1475;51.454;7.150;2022-07-17T08:23:30;20.10;99.90
2931;DHT22;1475;51.454;7.150;2022-07-17T08:25:57;20.20;99.90
2931;DHT22;1475;51.454;7.150;2022-07-17T08:28:24;20.30;99.90
2931;DHT22;1475;51.454;7.150;2022-07-17T08:30:52;20.30;99.90
2931;DHT22;1475;51.454;7.150;2022-07-17T08:33:18;20.40;99.90
2931;DHT22;1475;51.454;7.150;2022-07-17T08:35:45;20.50;99.90
2931;DHT22;1475;51.454;7.150;2022-07-17T08:38:12;20.60;99.90
2931;DHT22;1475;51.454;7.150;2022-07-17T08:40:39;20.70;99.90
2931;DHT22;1475;51.454;7.150;2022-07-17T08:43:09;20.80;99.90
2931;DHT22;1475;51.454;7.150;2022-07-17T08:45:39;20.80;99.90
2931;DHT22;1475;51.454;7.150;2022-07-17T08:48:12;20.80;99.90
2931;DHT22;1475;51.454;7.150;2022-07-17T08:50:39;20.80;99.90
2931;DHT22;1475;51.454;7.150;2022-07-17T08:53:06;20.90;99.90
2931;DHT22;1475;51.454;7.150;2022-07-17T08:55:33;21.00;99.90
2931;DHT22;1475;51.454;7.150;2022-07-17T08:58:00;21.00;99.90
2931;DHT22;1475;51.454;7.150;2022-07-17T09:00:28;20.90;99.90
2931;DHT22;1475;51.454;7.150;2022-07-17T09:02:58;20.90;99.90
2931;DHT22;1475;51.454;7.150;2022-07-17T09:05:29;21.00;99.90
2931;DHT22;1475;51.454;7.150;2022-07-17T09:07:56;21.10;99.90
2931;DHT22;1475;51.454;7.150;2022-07-17T09:10:34;21.20;99.90
2931;DHT22;1475;51.454;7.150;2022-07-17T09:13:12;21.30;99.90
2931;DHT22;1475;51.454;7.150;2022-07-17T09:15:39;21.50;99.90
2931;DHT22;1475;51.454;7.150;2022-07-17T09:18:06;21.70;99.90
2931;DHT22;1475;51.454;7.150;2022-07-17T09:20:34;21.70;99.90
2931;DHT22;1475;51.454;7.150;2022-07-17T09:23:04;21.70;99.90
2931;DHT22;1475;51.454;7.150;2022-07-17T09:25:34;21.80;99.90
2931;DHT22;1475;51.454;7.150;2022-07-17T09:28:01;21.80;99.90
2931;DHT22;1475;51.454;7.150;2022-07-17T09:30:29;21.80;99.90
2931;DHT22;1475;51.454;7.150;2022-07-17T09:32:56;21.90;99.90
2931;DHT22;1475;51.454;7.150;2022-07-17T09:35:23;21.90;99.90
2931;DHT22;1475;51.454;7.150;2022-07-17T09:37:53;21.90;99.90
2931;DHT22;1475;51.454;7.150;2022-07-17T09:40:21;21.80;99.90
2931;DHT22;1475;51.454;7.150;2022-07-17T09:43:06;21.90;99.90
2931;DHT22;1475;51.454;7.150;2022-07-17T09:45:33;22.00;99.90
2931;DHT22;1475;51.454;7.150;2022-07-17T09:48:01;22.10;99.90
2931;DHT22;1475;51.454;7.150;2022-07-17T09:50:29;22.20;99.90
2931;DHT22;1475;51.454;7.150;2022-07-17T09:52:57;22.30;99.90
2931;DHT22;1475;51.454;7.150;2022-07-17T09:55:28;22.40;99.90
2931;DHT22;1475;51.454;7.150;2022-07-17T09:57:58;22.60;99.90
2931;DHT22;1475;51.454;7.150;2022-07-17T10:00:26;22.60;99.90
2931;DHT22;1475;51.454;7.150;2022-07-17T10:02:53;22.80;99.90
2931;DHT22;1475;51.454;7.150;2022-07-17T10:05:20;22.90;99.90
2931;DHT22;1475;51.454;7.150;2022-07-17T10:07:47;23.00;99.90
2931;DHT22;1475;51.454;7.150;2022-07-17T10:10:17;23.00;99.90
2931;DHT22;1475;51.454;7.150;2022-07-17T10:12:46;23.10;99.90
2931;DHT22;1475;51.454;7.150;2022-07-17T10:15:14;23.10;99.90
2931;DHT22;1475;51.454;7.150;2022-07-17T10:17:41;23.20;99.90
2931;DHT22;1475;51.454;7.150;2022-07-17T10:20:09;23.30;99.90
2931;DHT22;1475;51.454;7.150;2022-07-17T10:22:44;23.40;99.90
2931;DHT22;1475;51.454;7.150;2022-07-17T10:25:13;23.50;99.90
2931;DHT22;1475;51.454;7.150;2022-07-17T10:27:48;23.60;99.90
2931;DHT22;1475;51.454;7.150;2022-07-17T10:30:23;23.70;99.00
2931;DHT22;1475;51.454;7.150;2022-07-17T10:32:53;23.80;97.80
2931;DHT22;1475;51.454;7.150;2022-07-17T10:35:20;23.80;98.80
2931;DHT22;1475;51.454;7.150;2022-07-17T10:37:47;24.00;99.20
2931;DHT22;1475;51.454;7.150;2022-07-17T10:40:16;24.00;98.80
2931;DHT22;1475;51.454;7.150;2022-07-17T10:42:57;24.10;99.30
2931;DHT22;1475;51.454;7.150;2022-07-17T10:45:26;24.10;96.50
2931;DHT22;1475;51.454;7.150;2022-07-17T10:47:56;24.20;98.00
2931;DHT22;1475;51.454;7.150;2022-07-17T10:50:27;24.20;95.60
2931;DHT22;1475;51.454;7.150;2022-07-17T10:53:18;24.30;93.90
2931;DHT22;1475;51.454;7.150;2022-07-17T10:55:48;24.20;93.50
2931;DHT22;1475;51.454;7.150;2022-07-17T10:58:19;24.30;94.60
2931;DHT22;1475;51.454;7.150;2022-07-17T11:01:00;24.30;92.50
2931;DHT22;1475;51.454;7.150;2022-07-17T11:03:27;24.40;91.00
2931;DHT22;1475;51.454;7.150;2022-07-17T11:05:54;24.30;89.40
2931;DHT22;1475;51.454;7.150;2022-07-17T11:08:21;24.30;89.10
2931;DHT22;1475;51.454;7.150;2022-07-17T11:10:48;24.50;89.70
2931;DHT22;1475;51.454;7.150;2022-07-17T11:13:17;24.60;86.20
2931;DHT22;1475;51.454;7.150;2022-07-17T11:15:45;24.60;85.50
2931;DHT22;1475;51.454;7.150;2022-07-17T11:18:16;24.80;89.10
2931;DHT22;1475;51.454;7.150;2022-07-17T11:20:51;25.00;83.50
2931;DHT22;1475;51.454;7.150;2022-07-17T11:23:18;25.20;82.20
2931;DHT22;1475;51.454;7.150;2022-07-17T11:25:57;25.30;80.20
2931;DHT22;1475;51.454;7.150;2022-07-17T11:28:30;25.50;79.50
2931;DHT22;1475;51.454;7.150;2022-07-17T11:30:57;25.70;82.20
2931;DHT22;1475;51.454;7.150;2022-07-17T11:33:24;25.80;77.10
2931;DHT22;1475;51.454;7.150;2022-07-17T11:35:51;26.00;74.50
2931;DHT22;1475;51.454;7.150;2022-07-17T11:38:24;26.20;72.80
2931;DHT22;1475;51.454;7.150;2022-07-17T11:40:51;26.80;70.00
2931;DHT22;1475;51.454;7.150;2022-07-17T11:43:18;27.70;60.50
2931;DHT22;1475;51.454;7.150;2022-07-17T11:45:46;28.70;55.50
2931;DHT22;1475;51.454;7.150;2022-07-17T11:48:13;29.70;50.70
2931;DHT22;1475;51.454;7.150;2022-07-17T11:50:40;30.50;43.30
2931;DHT22;1475;51.454;7.150;2022-07-17T11:53:07;31.70;32.70
2931;DHT22;1475;51.454;7.150;2022-07-17T11:55:37;32.70;30.00
2931;DHT22;1475;51.454;7.150;2022-07-17T11:58:05;34.20;28.60
2931;DHT22;1475;51.454;7.150;2022-07-17T12:00:32;35.30;23.90
2931;DHT22;1475;51.454;7.150;2022-07-17T12:03:02;36.50;15.90
2931;DHT22;1475;51.454;7.150;2022-07-17T12:05:33;37.30;11.70
2931;DHT22;1475;51.454;7.150;2022-07-17T12:08:00;38.00;11.40
2931;DHT22;1475;51.454;7.150;2022-07-17T12:10:29;38.70;6.50
2931;DHT22;1475;51.454;7.150;2022-07-17T12:13:00;39.20;5.20
2931;DHT22;1475;51.454;7.150;2022-07-17T12:15:38;39.30;3.70
2931;DHT22;1475;51.454;7.150;2022-07-17T12:18:18;39.50;3.60
2931;DHT22;1475;51.454;7.150;2022-07-17T12:20:48;40.10;1.20
2931;DHT22;1475;51.454;7.150;2022-07-17T12:23:34;39.70;1.00
2931;DHT22;1475;51.454;7.150;2022-07-17T12:26:05;39.50;1.00
2931;DHT22;1475;51.454;7.150;2022-07-17T12:28:32;39.80;1.00
2931;DHT22;1475;51.454;7.150;2022-07-17T12:30:59;40.00;1.00
2931;DHT22;1475;51.454;7.150;2022-07-17T12:33:28;39.80;1.00
2931;DHT22;1475;51.454;7.150;2022-07-17T12:35:54;40.30;1.00
2931;DHT22;1475;51.454;7.150;2022-07-17T12:38:21;41.10;1.00
2931;DHT22;1475;51.454;7.150;2022-07-17T12:40:48;41.40;1.00
2931;DHT22;1475;51.454;7.150;2022-07-17T12:43:15;41.70;1.00
2931;DHT22;1475;51.454;7.150;2022-07-17T12:45:42;41.40;1.00
2931;DHT22;1475;51.454;7.150;2022-07-17T12:48:09;41.50;1.00
2931;DHT22;1475;51.454;7.150;2022-07-17T12:50:37;42.00;1.00
2931;DHT22;1475;51.454;7.150;2022-07-17T12:53:04;42.30;1.00
2931;DHT22;1475;51.454;7.150;2022-07-17T12:55:31;42.30;1.00
2931;DHT22;1475;51.454;7.150;2022-07-17T12:57:58;41.60;1.00
2931;DHT22;1475;51.454;7.150;2022-07-17T13:00:25;41.30;1.00
2931;DHT22;1475;51.454;7.150;2022-07-17T13:02:52;41.10;1.00
2931;DHT22;1475;51.454;7.150;2022-07-17T13:05:19;41.00;1.00
2931;DHT22;1475;51.454;7.150;2022-07-17T13:07:47;41.50;1.00
2931;DHT22;1475;51.454;7.150;2022-07-17T13:10:14;42.00;1.00
2931;DHT22;1475;51.454;7.150;2022-07-17T13:12:40;42.70;1.00
2931;DHT22;1475;51.454;7.150;2022-07-17T13:15:08;43.50;1.00
2931;DHT22;1475;51.454;7.150;2022-07-17T13:17:35;43.70;1.00
2931;DHT22;1475;51.454;7.150;2022-07-17T13:20:04;43.20;1.00
2931;DHT22;1475;51.454;7.150;2022-07-17T13:22:31;42.70;1.00
2931;DHT22;1475;51.454;7.150;2022-07-17T13:24:59;42.10;1.00
2931;DHT22;1475;51.454;7.150;2022-07-17T13:27:25;42.70;1.00
2931;DHT22;1475;51.454;7.150;2022-07-17T13:29:52;43.50;1.00
2931;DHT22;1475;51.454;7.150;2022-07-17T13:32:19;44.00;1.00
2931;DHT22;1475;51.454;7.150;2022-07-17T13:34:45;43.80;1.00
2931;DHT22;1475;51.454;7.150;2022-07-17T13:37:14;43.80;1.00
2931;DHT22;1475;51.454;7.150;2022-07-17T13:39:41;43.50;1.00
2931;DHT22;1475;51.454;7.150;2022-07-17T13:42:09;43.40;1.00
2931;DHT22;1475;51.454;7.150;2022-07-17T13:44:36;43.40;1.00
2931;DHT22;1475;51.454;7.150;2022-07-17T13:47:02;43.20;1.00
2931;DHT22;1475;51.454;7.150;2022-07-17T13:49:29;43.10;1.00
2931;DHT22;1475;51.454;7.150;2022-07-17T13:51:56;43.80;1.00
2931;DHT22;1475;51.454;7.150;2022-07-17T13:54:22;44.30;1.00
2931;DHT22;1475;51.454;7.150;2022-07-17T13:56:49;45.00;1.00
2931;DHT22;1475;51.454;7.150;2022-07-17T13:59:19;45.80;1.00
2931;DHT22;1475;51.454;7.150;2022-07-17T14:01:46;46.30;1.00
2931;DHT22;1475;51.454;7.150;2022-07-17T14:04:13;45.50;1.00
2931;DHT22;1475;51.454;7.150;2022-07-17T14:06:39;44.70;1.00
2931;DHT22;1475;51.454;7.150;2022-07-17T14:09:06;44.20;1.00
2931;DHT22;1475;51.454;7.150;2022-07-17T14:11:35;44.20;1.00
2931;DHT22;1475;51.454;7.150;2022-07-17T14:14:02;43.80;1.00
2931;DHT22;1475;51.454;7.150;2022-07-17T14:16:31;42.90;1.00
2931;DHT22;1475;51.454;7.150;2022-07-17T14:18:57;42.70;1.00
2931;DHT22;1475;51.454;7.150;2022-07-17T14:21:24;42.20;1.00
2931;DHT22;1475;51.454;7.150;2022-07-17T14:23:51;42.00;1.00
2931;DHT22;1475;51.454;7.150;2022-07-17T14:26:18;41.70;1.00
2931;DHT22;1475;51.454;7.150;2022-07-17T14:28:45;42.50;1.00
2931;DHT22;1475;51.454;7.150;2022-07-17T14:31:11;43.20;1.00
2931;DHT22;1475;51.454;7.150;2022-07-17T14:33:39;44.00;1.00
2931;DHT22;1475;51.454;7.150;2022-07-17T14:36:06;44.10;1.00
2931;DHT22;1475;51.454;7.150;2022-07-17T14:38:33;44.30;1.00
2931;DHT22;1475;51.454;7.150;2022-07-17T14:41:00;44.60;1.00
2931;DHT22;1475;51.454;7.150;2022-07-17T14:43:27;44.80;1.00
2931;DHT22;1475;51.454;7.150;2022-07-17T14:45:55;44.50;1.00
2931;DHT22;1475;51.454;7.150;2022-07-17T14:48:21;44.30;1.00
2931;DHT22;1475;51.454;7.150;2022-07-17T14:50:50;44.30;1.00
2931;DHT22;1475;51.454;7.150;2022-07-17T14:53:16;43.60;1.00
2931;DHT22;1475;51.454;7.150;2022-07-17T14:55:43;42.80;1.00
2931;DHT22;1475;51.454;7.150;2022-07-17T14:58:10;42.80;1.00
2931;DHT22;1475;51.454;7.150;2022-07-17T15:00:36;43.40;1.00
2931;DHT22;1475;51.454;7.150;2022-07-17T15:03:03;43.50;1.00
2931;DHT22;1475;51.454;7.150;2022-07-17T15:05:30;43.60;1.00
2931;DHT22;1475;51.454;7.150;2022-07-17T15:07:58;43.30;1.00
2931;DHT22;1475;51.454;7.150;2022-07-17T15:10:25;42.90;1.00
2931;DHT22;1475;51.454;7.150;2022-07-17T15:12:52;42.90;1.00
2931;DHT22;1475;51.454;7.150;2022-07-17T15:15:18;43.00;1.00
2931;DHT22;1475;51.454;7.150;2022-07-17T15:17:45;43.20;1.00
2931;DHT22;1475;51.454;7.150;2022-07-17T15:20:12;43.20;1.00
2931;DHT22;1475;51.454;7.150;2022-07-17T15:22:39;43.10;1.00
2931;DHT22;1475;51.454;7.150;2022-07-17T15:25:07;42.90;1.00
2931;DHT22;1475;51.454;7.150;2022-07-17T15:27:34;43.00;1.00
2931;DHT22;1475;51.454;7.150;2022-07-17T15:30:02;43.40;1.00
2931;DHT22;1475;51.454;7.150;2022-07-17T15:32:29;43.70;1.00
2931;DHT22;1475;51.454;7.150;2022-07-17T15:34:56;43.60;1.00
2931;DHT22;1475;51.454;7.150;2022-07-17T15:37:22;43.90;1.00
2931;DHT22;1475;51.454;7.150;2022-07-17T15:39:50;43.90;1.00
2931;DHT22;1475;51.454;7.150;2022-07-17T15:42:18;43.90;1.00
2931;DHT22;1475;51.454;7.150;2022-07-17T15:44:45;44.20;1.00
2931;DHT22;1475;51.454;7.150;2022-07-17T15:47:11;44.60;1.00
2931;DHT22;1475;51.454;7.150;2022-07-17T15:49:38;45.00;1.00
2931;DHT22;1475;51.454;7.150;2022-07-17T15:52:06;45.30;1.00
2931;DHT22;1475;51.454;7.150;2022-07-17T15:54:33;45.90;1.00
2931;DHT22;1475;51.454;7.150;2022-07-17T15:56:59;45.70;1.00
2931;DHT22;1475;51.454;7.150;2022-07-17T15:59:27;45.80;1.00
2931;DHT22;1475;51.454;7.150;2022-07-17T16:01:54;45.90;1.00
2931;DHT22;1475;51.454;7.150;2022-07-17T16:04:21;46.10;1.00
2931;DHT22;1475;51.454;7.150;2022-07-17T16:06:48;45.90;1.00